Cesky Tesin, Czech Republic
Current Conditions -  °F | °C
As of 10:30 PM on Saturday 25 Oct 2014 (Local Time) from LKMT Reporting Station
Overcast Overcast  
Wind Chill: 40°   Ceiling: 2100
Heat Index: 45°   Visibility: 5mi
Dew Point: 41°   Wind: 8mph
Humidity: 87%   Direction: 220°SW
Pressure: 30.3"   Gusts: NA
Location:  49.74°N, 18.62°E
Report Text: LKMT 252030Z 22007KT 8000 OVC021 07/05 Q1026 NOSIG
Loading
Personal Weather Stations






























Interactive Weather Map
Tropical Storm Tracking
New forecast layout! Learn more

10-Day Weather Forecast

Advertisements
Track Severe Weather on mobile